createdAt,value
2023-05-09T00:01:59.393Z,101048.19
2023-05-09T00:05:02.980Z,101029.94
2023-05-09T00:08:05.683Z,101016.75
2023-05-09T00:11:08.277Z,101026.31
2023-05-09T00:14:12.620Z,101026.81
2023-05-09T00:17:15.856Z,101030.09
2023-05-09T00:20:18.657Z,101019.06
2023-05-09T00:23:24.232Z,101024.66
2023-05-09T00:26:29.977Z,101027.97
2023-05-09T00:29:35.438Z,101029.44
2023-05-09T00:32:38.109Z,101023.84
2023-05-09T00:35:40.699Z,101020.56
2023-05-09T00:38:43.466Z,101014.28
2023-05-09T00:41:46.142Z,101011.16
2023-05-09T00:44:51.392Z,101008.53
2023-05-09T00:47:54.286Z,101013.97
2023-05-09T00:50:57.147Z,101000.81
2023-05-09T00:54:00.044Z,100996.03
2023-05-09T00:57:03.249Z,101006.56
2023-05-09T01:00:06.793Z,101004.22
2023-05-09T01:03:09.822Z,101001.25
2023-05-09T01:06:43.666Z,101004.09
2023-05-09T01:10:05.151Z,101001.59
2023-05-09T01:13:26.679Z,101007.88
2023-05-09T01:16:43.806Z,101003.41
2023-05-09T01:19:54.792Z,100991.72
2023-05-09T01:23:15.549Z,100996.50
2023-05-09T01:26:52.412Z,100999.13
2023-05-09T01:29:59.699Z,101007.53
2023-05-09T01:33:05.643Z,100999.31
2023-05-09T01:36:12.828Z,100969.50
2023-05-09T01:39:16.471Z,100997.66
2023-05-09T01:42:20.137Z,100982.50
2023-05-09T01:45:24.601Z,100991.22
2023-05-09T01:48:30.999Z,100966.03
2023-05-09T01:51:34.617Z,100990.59
2023-05-09T01:54:39.196Z,100983.28
2023-05-09T01:57:43.469Z,100952.81
2023-05-09T02:00:47.538Z,100978.50
2023-05-09T02:03:52.733Z,100981.19
2023-05-09T02:06:55.943Z,100977.72
2023-05-09T02:10:00.724Z,100967.66
2023-05-09T02:13:04.067Z,100986.75
2023-05-09T02:16:07.893Z,100989.19
2023-05-09T02:19:11.988Z,100976.84
2023-05-09T02:22:15.096Z,100976.03
2023-05-09T02:25:18.764Z,100969.94
2023-05-09T02:28:23.225Z,100974.78
2023-05-09T02:31:28.635Z,100975.78
2023-05-09T02:34:31.586Z,100976.31
2023-05-09T02:37:35.624Z,100980.13
2023-05-09T02:40:44.920Z,100971.53
2023-05-09T02:43:47.545Z,100979.84
2023-05-09T02:46:50.811Z,100967.31
2023-05-09T02:49:55.355Z,100979.28
2023-05-09T02:52:58.065Z,100965.22
2023-05-09T02:56:00.714Z,100950.25
2023-05-09T02:59:03.341Z,100970.00
2023-05-09T03:02:06.600Z,100960.13
2023-05-09T03:05:09.699Z,100969.53
2023-05-09T03:08:12.904Z,100953.34
2023-05-09T03:11:15.685Z,100975.53
2023-05-09T03:14:23.082Z,100973.34
2023-05-09T03:17:25.778Z,100959.19
2023-05-09T03:20:28.382Z,100960.66
2023-05-09T03:23:31.105Z,100965.25
2023-05-09T03:26:36.906Z,100976.94
2023-05-09T03:29:39.513Z,100959.75
2023-05-09T03:32:44.512Z,100974.03
2023-05-09T03:35:47.162Z,100977.34
2023-05-09T03:38:49.884Z,100976.72
2023-05-09T03:41:54.754Z,100976.59
2023-05-09T03:44:58.165Z,100976.94
2023-05-09T03:48:00.824Z,100968.75
2023-05-09T03:51:04.104Z,100967.16
2023-05-09T03:54:10.251Z,100978.84
2023-05-09T03:57:12.941Z,100974.56
2023-05-09T04:00:16.078Z,100966.19
2023-05-09T04:03:27.189Z,100987.09
2023-05-09T04:06:34.289Z,100990.88
2023-05-09T04:09:37.834Z,100982.72
2023-05-09T04:12:40.856Z,100967.88
2023-05-09T04:15:44.068Z,100969.72
2023-05-09T04:18:47.203Z,100972.34
2023-05-09T04:21:50.982Z,100980.50
2023-05-09T04:24:56.429Z,100983.31
2023-05-09T04:27:59.238Z,100987.72
2023-05-09T04:31:02.056Z,100982.09
2023-05-09T04:34:06.630Z,100984.84
2023-05-09T04:37:11.243Z,100994.72
2023-05-09T04:40:14.816Z,100982.38
2023-05-09T04:43:28.242Z,100967.13
2023-05-09T04:46:39.685Z,100988.13
2023-05-09T04:49:43.091Z,100991.06
2023-05-09T04:52:45.715Z,100991.00
2023-05-09T04:55:48.616Z,100989.97
2023-05-09T04:58:51.625Z,100996.44
2023-05-09T05:01:54.958Z,100998.31
2023-05-09T05:05:10.190Z,100995.84
2023-05-09T05:08:18.170Z,100987.94
2023-05-09T05:11:21.724Z,100992.69
2023-05-09T05:14:24.974Z,101002.63
2023-05-09T05:17:29.703Z,100999.94
2023-05-09T05:20:58.473Z,100996.28
2023-05-09T05:24:05.253Z,101002.56
2023-05-09T05:27:08.701Z,101000.72
2023-05-09T05:30:12.608Z,100996.06
2023-05-09T05:33:16.272Z,100996.16
2023-05-09T05:36:28.615Z,100973.34
2023-05-09T05:39:41.297Z,100970.22
2023-05-09T05:46:29.512Z,100972.78
2023-05-09T05:49:32.869Z,100944.41
2023-05-09T05:52:38.996Z,100936.66
2023-05-09T05:55:42.486Z,100974.50
2023-05-09T05:58:46.028Z,100940.75
2023-05-09T06:01:49.477Z,100957.53
2023-05-09T06:04:53.969Z,100997.41
2023-05-09T06:08:00.124Z,101002.72
2023-05-09T06:11:03.114Z,100988.59
2023-05-09T06:14:07.229Z,100988.19
2023-05-09T06:17:10.125Z,100996.56
2023-05-09T06:20:13.093Z,100989.84
2023-05-09T06:23:15.843Z,100993.94
2023-05-09T06:26:20.073Z,100968.97
2023-05-09T06:29:35.769Z,100987.38
2023-05-09T06:32:46.262Z,100981.03
2023-05-09T06:35:48.954Z,100982.88
2023-05-09T06:39:00.185Z,100979.19
2023-05-09T06:42:03.394Z,100955.25
2023-05-09T06:45:08.952Z,100954.47
2023-05-09T06:48:15.521Z,100972.84
2023-05-09T06:51:18.698Z,100970.59
2023-05-09T06:54:22.126Z,100901.84
2023-05-09T06:57:24.966Z,100981.22
2023-05-09T07:00:27.650Z,100974.81
2023-05-09T07:03:30.518Z,100970.88
2023-05-09T07:06:33.381Z,100954.69
2023-05-09T07:09:35.964Z,100958.78
2023-05-09T07:12:38.840Z,100908.47
2023-05-09T07:15:42.964Z,100962.00
2023-05-09T07:18:45.901Z,100939.50
2023-05-09T07:21:58.466Z,100947.47
2023-05-09T07:25:01.221Z,100884.03
2023-05-09T07:28:04.016Z,100937.13
2023-05-09T07:31:06.653Z,100933.00
2023-05-09T07:34:09.246Z,100941.94
2023-05-09T07:37:13.694Z,100929.59
2023-05-09T07:40:18.346Z,100925.03
2023-05-09T07:43:21.187Z,100924.13
2023-05-09T07:46:23.866Z,100931.38
2023-05-09T07:49:26.603Z,100924.41
2023-05-09T07:52:29.218Z,100922.97
2023-05-09T07:55:31.948Z,100909.47
2023-05-09T07:58:34.596Z,100911.19
2023-05-09T08:01:37.182Z,100911.97
2023-05-09T08:04:41.865Z,100918.63
2023-05-09T08:07:44.810Z,100900.91
2023-05-09T08:10:50.005Z,100904.72
2023-05-09T08:13:52.753Z,100907.00
2023-05-09T08:16:55.366Z,100894.72
2023-05-09T08:19:58.401Z,100898.50
2023-05-09T08:23:00.972Z,100891.72
2023-05-09T08:26:04.063Z,100892.66
2023-05-09T08:29:06.685Z,100884.03
2023-05-09T08:32:09.532Z,100893.84
2023-05-09T08:35:12.539Z,100886.19
2023-05-09T08:38:15.391Z,100884.06
2023-05-09T08:41:18.240Z,100886.09
2023-05-09T08:44:23.581Z,100878.31
2023-05-09T08:47:26.659Z,100870.41
2023-05-09T08:50:29.448Z,100868.78
2023-05-09T08:53:33.211Z,100860.38
2023-05-09T08:57:01.594Z,100868.53
2023-05-09T09:00:20.465Z,100806.66
2023-05-09T09:03:36.280Z,100857.22
2023-05-09T09:06:54.220Z,100861.97
2023-05-09T09:09:59.996Z,100864.44
2023-05-09T09:13:18.705Z,100851.13
2023-05-09T09:16:40.868Z,100852.63
2023-05-09T09:19:58.232Z,100835.53
2023-05-09T09:23:14.995Z,100811.50
2023-05-09T09:26:19.492Z,100852.88
2023-05-09T09:29:30.546Z,100847.41
2023-05-09T09:32:34.574Z,100842.69
2023-05-09T09:35:41.236Z,100841.25
2023-05-09T09:38:45.224Z,100818.25
2023-05-09T09:41:48.619Z,100839.53
2023-05-09T09:45:02.561Z,100843.16
2023-05-09T09:48:07.142Z,100833.16
2023-05-09T09:51:12.962Z,100828.03
2023-05-09T09:54:15.584Z,100838.34
2023-05-09T09:57:37.220Z,100833.47
2023-05-09T10:00:39.876Z,100774.53
2023-05-09T10:03:46.701Z,100793.00
2023-05-09T10:06:58.636Z,100755.09
2023-05-09T10:10:06.431Z,100829.06
2023-05-09T10:13:12.173Z,100797.75
2023-05-09T10:16:14.977Z,100797.63
2023-05-09T10:19:22.030Z,100777.72
2023-05-09T10:22:25.021Z,100796.50
2023-05-09T10:25:31.904Z,100806.22
2023-05-09T10:28:36.291Z,100812.06
2023-05-09T10:31:41.256Z,100815.66
2023-05-09T10:34:51.554Z,100806.69
2023-05-09T10:37:58.026Z,100807.38
2023-05-09T10:41:01.087Z,100759.91
2023-05-09T10:44:04.161Z,100792.00
2023-05-09T10:47:09.416Z,100776.44
2023-05-09T10:50:13.361Z,100786.09
2023-05-09T10:53:17.966Z,100730.97
2023-05-09T10:56:33.146Z,100764.00
2023-05-09T10:59:38.704Z,100772.66
2023-05-09T11:02:41.636Z,100784.34
2023-05-09T11:05:44.324Z,100776.28
2023-05-09T11:08:47.832Z,100788.69
2023-05-09T11:11:55.114Z,100771.78
2023-05-09T11:15:04.581Z,100772.03
2023-05-09T11:18:08.704Z,100777.06
2023-05-09T11:21:11.886Z,100768.75
2023-05-09T11:24:17.971Z,100750.38
2023-05-09T11:27:31.214Z,100755.78
2023-05-09T11:30:41.984Z,100752.91
2023-05-09T11:33:47.196Z,100713.78
2023-05-09T11:36:50.118Z,100709.94
2023-05-09T11:40:05.925Z,100732.88
2023-05-09T11:43:20.349Z,100657.84
2023-05-09T11:46:31.829Z,100697.53
2023-05-09T11:49:34.802Z,100682.84
2023-05-09T11:52:39.127Z,100660.72
2023-05-09T11:55:42.128Z,100667.91
2023-05-09T11:58:46.951Z,100713.44
2023-05-09T12:01:55.010Z,100685.91
2023-05-09T12:05:06.982Z,100679.81
2023-05-09T12:08:09.945Z,100713.75
2023-05-09T12:11:13.990Z,100715.34
2023-05-09T12:14:35.491Z,100705.47
2023-05-09T12:17:38.261Z,100708.28
2023-05-09T12:20:51.205Z,100703.09
2023-05-09T12:23:56.894Z,100704.34
2023-05-09T12:27:04.018Z,100648.41
2023-05-09T12:30:12.127Z,100683.16
2023-05-09T12:33:16.076Z,100654.72
2023-05-09T12:36:18.940Z,100670.00
2023-05-09T12:39:23.180Z,100664.44
2023-05-09T12:42:34.216Z,100640.72
2023-05-09T12:45:39.417Z,100634.53
2023-05-09T12:48:46.991Z,100619.94
2023-05-09T12:51:51.185Z,100663.88
2023-05-09T12:54:54.587Z,100609.66
2023-05-09T12:58:02.532Z,100660.00
2023-05-09T13:01:06.168Z,100654.97
2023-05-09T13:04:10.510Z,100651.22
2023-05-09T13:07:13.858Z,100641.00
2023-05-09T13:10:19.601Z,100649.59
2023-05-09T13:13:26.586Z,100650.03
2023-05-09T13:16:29.443Z,100639.06
2023-05-09T13:19:39.442Z,100635.63
2023-05-09T13:22:42.269Z,100633.34
2023-05-09T13:25:45.159Z,100618.81
2023-05-09T13:28:47.945Z,100628.84
2023-05-09T13:31:50.662Z,100622.59
2023-05-09T13:34:53.294Z,100620.09
2023-05-09T13:37:58.530Z,100619.34
2023-05-09T13:41:01.723Z,100618.53
2023-05-09T13:44:06.605Z,100617.56
2023-05-09T13:47:11.215Z,100622.94
2023-05-09T13:50:14.197Z,100610.44
2023-05-09T13:53:17.405Z,100610.41
2023-05-09T13:56:20.098Z,100606.50
2023-05-09T13:59:22.661Z,100608.25
2023-05-09T14:02:25.264Z,100605.72
2023-05-09T14:05:27.829Z,100606.56
2023-05-09T14:08:30.512Z,100597.28
2023-05-09T14:11:33.272Z,100579.59
2023-05-09T14:14:35.876Z,100586.47
2023-05-09T14:17:38.864Z,100582.84
2023-05-09T14:20:42.396Z,100580.41
2023-05-09T14:23:44.933Z,100571.28
2023-05-09T14:26:47.877Z,100563.75
2023-05-09T14:29:50.634Z,100559.44
2023-05-09T14:32:53.408Z,100562.72
2023-05-09T14:36:01.354Z,100570.19
2023-05-09T14:39:04.195Z,100562.25
2023-05-09T14:42:08.502Z,100564.56
2023-05-09T14:45:13.103Z,100555.31
2023-05-09T14:48:16.301Z,100555.03
2023-05-09T14:51:19.067Z,100548.69
2023-05-09T14:54:21.630Z,100548.50
2023-05-09T14:57:24.287Z,100541.91
2023-05-09T15:00:28.272Z,100532.44
2023-05-09T15:03:31.381Z,100534.34
2023-05-09T15:06:35.038Z,100534.53
2023-05-09T15:09:38.374Z,100540.00
2023-05-09T15:12:41.044Z,100527.44
2023-05-09T15:15:43.880Z,100526.16
2023-05-09T15:18:46.534Z,100530.91
2023-05-09T15:21:49.145Z,100522.91
2023-05-09T15:24:51.891Z,100526.47
2023-05-09T15:27:54.561Z,100526.78
2023-05-09T15:30:58.169Z,100514.69
2023-05-09T15:34:01.533Z,100518.97
2023-05-09T15:37:04.098Z,100507.06
2023-05-09T15:40:10.042Z,100506.56
2023-05-09T15:43:13.160Z,100507.06
2023-05-09T15:46:15.859Z,100506.09
2023-05-09T15:49:18.780Z,100502.47
2023-05-09T15:52:21.582Z,100502.97
2023-05-09T15:55:24.545Z,100495.97
2023-05-09T15:58:27.934Z,100495.59
2023-05-09T16:01:30.604Z,100490.59
2023-05-09T16:04:33.710Z,100494.94
2023-05-09T16:07:36.484Z,100490.28
2023-05-09T16:10:39.095Z,100480.44
2023-05-09T16:13:41.829Z,100488.13
2023-05-09T16:16:44.426Z,100476.69
2023-05-09T16:19:47.206Z,100472.97
2023-05-09T16:22:49.866Z,100463.91
2023-05-09T16:25:52.379Z,100465.84
2023-05-09T16:28:54.940Z,100462.00
2023-05-09T16:31:58.370Z,100467.44
2023-05-09T16:35:00.994Z,100455.75
2023-05-09T16:38:03.806Z,100458.22
2023-05-09T16:41:06.470Z,100457.41
2023-05-09T16:44:09.175Z,100457.50
2023-05-09T16:47:11.839Z,100449.00
2023-05-09T16:50:14.618Z,100447.81
2023-05-09T16:53:19.087Z,100447.63
2023-05-09T16:56:25.486Z,100446.56
2023-05-09T16:59:28.116Z,100444.31
2023-05-09T17:02:30.841Z,100444.56
2023-05-09T17:05:33.796Z,100442.81
2023-05-09T17:08:36.509Z,100431.38
2023-05-09T17:11:39.130Z,100430.66
2023-05-09T17:14:41.807Z,100435.50
2023-05-09T17:17:44.493Z,100437.34
2023-05-09T17:20:47.314Z,100425.31
2023-05-09T17:23:49.952Z,100430.84
2023-05-09T17:26:52.784Z,100445.00
2023-05-09T17:29:55.479Z,100438.31
2023-05-09T17:32:58.232Z,100440.69
2023-05-09T17:36:00.902Z,100437.03
2023-05-09T17:39:04.823Z,100430.34
2023-05-09T17:42:07.948Z,100431.16
2023-05-09T17:45:14.055Z,100429.47
2023-05-09T17:48:16.903Z,100425.03
2023-05-09T17:51:19.541Z,100430.78
2023-05-09T17:54:22.150Z,100427.25
2023-05-09T17:57:24.744Z,100429.88
2023-05-09T18:00:27.360Z,100429.72
2023-05-09T18:03:32.343Z,100437.63
2023-05-09T18:06:35.154Z,100440.88
2023-05-09T18:09:40.171Z,100442.00
2023-05-09T18:12:45.239Z,100434.41
2023-05-09T18:15:48.366Z,100436.69
2023-05-09T18:18:50.997Z,100435.88
2023-05-09T18:21:56.433Z,100430.63
2023-05-09T18:24:59.249Z,100438.72
2023-05-09T18:28:01.920Z,100433.19
2023-05-09T18:31:06.384Z,100434.88
2023-05-09T18:34:12.382Z,100444.78
2023-05-09T18:37:15.232Z,100451.03
2023-05-09T18:40:18.034Z,100457.44
2023-05-09T18:43:23.449Z,100453.38
2023-05-09T18:46:28.108Z,100459.41
2023-05-09T18:49:30.799Z,100460.00
2023-05-09T18:52:34.420Z,100462.53
2023-05-09T18:55:37.213Z,100474.97
2023-05-09T18:58:40.013Z,100452.69
2023-05-09T19:01:44.132Z,100454.53
2023-05-09T19:04:48.187Z,100473.09
2023-05-09T19:07:51.836Z,100469.50
2023-05-09T19:10:56.022Z,100466.22
2023-05-09T19:14:00.098Z,100468.84
2023-05-09T19:17:04.438Z,100466.59
2023-05-09T19:20:08.551Z,100462.63
2023-05-09T19:23:12.192Z,100462.56
2023-05-09T19:26:18.226Z,100464.63
2023-05-09T19:29:20.947Z,100462.09
2023-05-09T19:32:23.633Z,100439.94
2023-05-09T19:35:26.692Z,100465.84
2023-05-09T19:38:30.799Z,100469.56
2023-05-09T19:41:33.714Z,100450.47
2023-05-09T19:44:36.299Z,100460.91
2023-05-09T19:47:39.546Z,100457.13
2023-05-09T19:50:43.154Z,100459.28
2023-05-09T19:53:46.981Z,100454.72
2023-05-09T19:56:50.807Z,100457.72
2023-05-09T19:59:55.249Z,100447.34
2023-05-09T20:02:57.961Z,100453.41
2023-05-09T20:06:01.333Z,100453.22
2023-05-09T20:09:04.806Z,100449.41
2023-05-09T20:12:07.600Z,100447.56
2023-05-09T20:15:10.509Z,100430.94
2023-05-09T20:18:15.013Z,100432.59
2023-05-09T20:21:17.964Z,100428.84
2023-05-09T20:24:20.778Z,100435.78
2023-05-09T20:27:23.727Z,100439.34
2023-05-09T20:30:26.533Z,100434.09
2023-05-09T20:33:29.588Z,100419.41
2023-05-09T20:36:32.631Z,100431.75
2023-05-09T20:39:35.567Z,100436.22
2023-05-09T20:42:38.215Z,100431.88
2023-05-09T20:45:41.050Z,100428.56
2023-05-09T20:48:44.389Z,100435.34
2023-05-09T20:51:47.060Z,100425.97
2023-05-09T20:54:50.778Z,100429.28
2023-05-09T20:57:54.640Z,100423.59
2023-05-09T21:00:57.537Z,100413.41
2023-05-09T21:04:00.354Z,100413.44
2023-05-09T21:07:03.604Z,100402.28
2023-05-09T21:10:06.820Z,100404.69
2023-05-09T21:13:09.687Z,100412.56
2023-05-09T21:16:12.293Z,100387.28
2023-05-09T21:19:15.734Z,100403.06
2023-05-09T21:22:18.487Z,100401.88
2023-05-09T21:25:21.289Z,100399.78
2023-05-09T21:28:24.110Z,100394.84
2023-05-09T21:31:28.969Z,100396.19
2023-05-09T21:34:31.616Z,100392.72
2023-05-09T21:37:37.432Z,100392.19
2023-05-09T21:40:40.891Z,100398.06
2023-05-09T21:43:43.590Z,100405.25
2023-05-09T21:46:46.506Z,100396.31
2023-05-09T21:49:51.756Z,100398.16
2023-05-09T21:52:56.338Z,100395.59
2023-05-09T21:55:58.986Z,100395.94
2023-05-09T21:59:01.569Z,100396.47
2023-05-09T22:02:04.149Z,100390.75
2023-05-09T22:05:06.927Z,100395.41
2023-05-09T22:08:09.765Z,100398.69
2023-05-09T22:11:14.116Z,100402.31
2023-05-09T22:14:17.355Z,100398.03
2023-05-09T22:17:20.089Z,100390.03
2023-05-09T22:20:22.745Z,100396.44
2023-05-09T22:23:25.488Z,100392.41
2023-05-09T22:26:28.058Z,100389.22
2023-05-09T22:29:34.228Z,100386.56
2023-05-09T22:32:36.873Z,100385.19
2023-05-09T22:35:39.724Z,100372.56
2023-05-09T22:38:43.210Z,100384.38
2023-05-09T22:41:45.822Z,100386.66
2023-05-09T22:44:49.933Z,100386.28
2023-05-09T22:47:52.585Z,100381.63
2023-05-09T22:50:55.127Z,100381.00
2023-05-09T22:53:57.726Z,100398.94
2023-05-09T22:57:00.501Z,100387.91
2023-05-09T23:00:03.300Z,100398.81
2023-05-09T23:03:06.056Z,100389.22
2023-05-09T23:06:08.654Z,100389.56
2023-05-09T23:09:11.241Z,100392.41
2023-05-09T23:12:13.920Z,100385.84
2023-05-09T23:15:16.616Z,100387.94
2023-05-09T23:18:21.166Z,100379.22
2023-05-09T23:21:23.885Z,100377.75
2023-05-09T23:24:26.582Z,100382.44
2023-05-09T23:27:31.284Z,100372.94
2023-05-09T23:30:33.919Z,100384.34
2023-05-09T23:33:36.492Z,100386.91
2023-05-09T23:36:39.491Z,100381.13
2023-05-09T23:39:42.041Z,100375.81
2023-05-09T23:42:44.584Z,100370.34
2023-05-09T23:45:47.136Z,100366.06
2023-05-09T23:48:49.748Z,100366.78
2023-05-09T23:51:52.337Z,100351.69
2023-05-09T23:54:54.906Z,100353.88
2023-05-09T23:57:57.662Z,100344.38
